Skip Navigation Links Skip Navigation Links

Current Weather

Niagara Falls Intl, Niagara Falls, N.Y.

For information only: do not use for flight planning or navigation.
Latest weather
Observation time Friday, January 21, 2022 3:53 PM EST
Local time Friday, January 21, 2022 4:11 PM EST
Flight conditions Visual Meteorological Conditions
Winds
Wind direction East-Northeast (70°)
Wind speed 6 mph
Visibility 10 mi.
Sky condition
Ceiling unlimited
Sky clear
Temperature 14°F
Dewpoint 2°F
Altimeter 30.59 in.Hg
Pressure change last 3 hours0.03 in.Hg
Pressure falling more slowly
Derived measurements
Relative humidity 58%
Wind chill 5°F
Density altitude -3278 ft.
Sea-level pressure 30.67 in.Hg
Remarks
Corrected report.
Automated weather observing station with precipitation discriminator.
METAR KIAG 212053Z COR 07005KT 10SM CLR M10/M17 A3059 RMK AO2 SLP385 T11001167 56009

Settings

Location code

InnerDrive.Weather 4.0.6770.0 Release CLR 4.0.30319.42000
Copyright ©2018 Inner Drive Technology. All rights reserved. Portions Copyright ©1986-2018 David Braverman.

Find weather

Site navigation


Skip Navigation Links

Place info

Page info

PayPal - The safer, easier way to pay online!

Return home.

Copyright ©2022 Inner Drive Technology. Purveyors of fine, hand-crafted computer software. Page printed 2022-01-21T21:11:04 UTC.